Aérodrome :
LOGIN :

S'inscrire | Disclaimer

   EN    FR    IT 

 










Légende :    VFR   VFR Marginal   IFR   IFR Intensif   IFR Très Intensif
Visi : 
Plafond : 
>= 8 km
>= 3000ft
5 à 8 km
1000 à 3000 ft
1500m à 5 km
500 à 1000 ft
800 à 1500m
200 à 500 ft
< 800m
< 200 ft
Symboles :   Orages  Brouillard  Fortes neiges  Fortes précipitations  Vent > 20 kt
SIGMETs :   Divers  Orages  Givrage  Turbulence  Onde Orograph.  Cendres Volcan.







- Altitude de l'aérodrome : 100 ft


EBDT - Schaffen

DERNIER METAR :
  • 190955Z AUTO 24009KT 9999 FEW033/// SCT100/// BKN110/// 20/11 Q1016 BLU

METARs EXPIRÉS :
  • 190925Z AUTO 24011KT 9999 FEW028/// SCT037/// BKN160/// 18/11 Q1016 BLU
  • 190855Z AUTO 22008KT 9999 FEW027/// 18/11 Q1016 BLU
  • 190825Z AUTO 23008KT 9999 FEW025/// 17/11 Q1016 BLU
  • 190755Z AUTO 23008KT 9999 BKN160/// 17/12 Q1016 BLU
  • 190725Z AUTO 22007KT 9999 BKN160/// 16/11 Q1016 BLU

Prévision TAF périmée.
Pas de NOTAMs connus pour ce terrain.



MET'MAP, la Météo Aéronautique d'un coup d'oeil ! - Copyright ORBIFLY Décembre 2007 - Disclaimer

ORBIFLY MET'MAP TEAM :

Programmation & Développement : Alexandra Zaïnal
Conception & Développement : Baudouin d'Aumeries
Co-Programmation & Développement : Marc-Olivier Méhu
Soutien technique & logistique : Manuel Goepfert

Contact : metmap@orbifly.com




SOURCES & CREDITS :

   NOAA